sensor_id;sensor_type;location;lat;lon;timestamp;P1;durP1;ratioP1;P2;durP2;ratioP2
36211;SDS011;22247;48.586;13.492;2023-07-20T00:00:43;11.30;;;4.53;;
36211;SDS011;22247;48.586;13.492;2023-07-20T00:03:12;8.27;;;4.13;;
36211;SDS011;22247;48.586;13.492;2023-07-20T00:05:40;8.85;;;5.05;;
36211;SDS011;22247;48.586;13.492;2023-07-20T00:08:05;8.05;;;4.22;;
36211;SDS011;22247;48.586;13.492;2023-07-20T00:10:30;8.57;;;4.65;;
36211;SDS011;22247;48.586;13.492;2023-07-20T00:12:57;19.67;;;5.50;;
36211;SDS011;22247;48.586;13.492;2023-07-20T00:15:22;14.40;;;5.15;;
36211;SDS011;22247;48.586;13.492;2023-07-20T00:17:47;11.48;;;5.40;;
36211;SDS011;22247;48.586;13.492;2023-07-20T00:20:12;9.68;;;5.38;;
36211;SDS011;22247;48.586;13.492;2023-07-20T00:22:37;12.65;;;5.70;;
36211;SDS011;22247;48.586;13.492;2023-07-20T00:25:04;10.63;;;5.85;;
36211;SDS011;22247;48.586;13.492;2023-07-20T00:27:29;7.88;;;5.10;;
36211;SDS011;22247;48.586;13.492;2023-07-20T00:29:55;10.57;;;5.53;;
36211;SDS011;22247;48.586;13.492;2023-07-20T00:32:20;11.63;;;6.13;;
36211;SDS011;22247;48.586;13.492;2023-07-20T00:34:45;13.07;;;5.35;;
36211;SDS011;22247;48.586;13.492;2023-07-20T00:37:10;11.27;;;6.13;;
36211;SDS011;22247;48.586;13.492;2023-07-20T00:39:35;13.73;;;5.32;;
36211;SDS011;22247;48.586;13.492;2023-07-20T00:42:00;11.02;;;4.85;;
36211;SDS011;22247;48.586;13.492;2023-07-20T00:44:25;14.50;;;5.22;;
36211;SDS011;22247;48.586;13.492;2023-07-20T00:46:50;9.10;;;4.78;;
36211;SDS011;22247;48.586;13.492;2023-07-20T00:49:17;14.10;;;5.00;;
36211;SDS011;22247;48.586;13.492;2023-07-20T00:51:45;11.93;;;5.60;;
36211;SDS011;22247;48.586;13.492;2023-07-20T00:54:10;12.73;;;4.75;;
36211;SDS011;22247;48.586;13.492;2023-07-20T00:56:35;8.35;;;5.30;;
36211;SDS011;22247;48.586;13.492;2023-07-20T00:59:01;9.27;;;4.80;;
36211;SDS011;22247;48.586;13.492;2023-07-20T01:01:26;11.40;;;4.70;;
36211;SDS011;22247;48.586;13.492;2023-07-20T01:03:51;7.28;;;4.90;;
36211;SDS011;22247;48.586;13.492;2023-07-20T01:09:21;14.57;;;5.25;;
36211;SDS011;22247;48.586;13.492;2023-07-20T01:11:59;12.40;;;4.68;;
36211;SDS011;22247;48.586;13.492;2023-07-20T01:14:25;9.07;;;4.93;;
36211;SDS011;22247;48.586;13.492;2023-07-20T01:16:52;11.43;;;5.25;;
36211;SDS011;22247;48.586;13.492;2023-07-20T01:19:17;11.55;;;5.03;;
36211;SDS011;22247;48.586;13.492;2023-07-20T01:22:30;8.30;;;4.97;;
36211;SDS011;22247;48.586;13.492;2023-07-20T01:29:22;7.30;;;4.83;;
36211;SDS011;22247;48.586;13.492;2023-07-20T01:31:52;9.50;;;5.22;;
36211;SDS011;22247;48.586;13.492;2023-07-20T01:34:18;9.77;;;4.95;;
36211;SDS011;22247;48.586;13.492;2023-07-20T01:36:43;8.65;;;4.57;;
36211;SDS011;22247;48.586;13.492;2023-07-20T01:39:08;8.27;;;4.68;;
36211;SDS011;22247;48.586;13.492;2023-07-20T01:41:34;8.05;;;4.57;;
36211;SDS011;22247;48.586;13.492;2023-07-20T01:44:03;10.07;;;4.78;;
36211;SDS011;22247;48.586;13.492;2023-07-20T01:46:28;10.15;;;4.53;;
36211;SDS011;22247;48.586;13.492;2023-07-20T01:48:53;9.40;;;5.20;;
36211;SDS011;22247;48.586;13.492;2023-07-20T01:51:19;11.85;;;5.40;;
36211;SDS011;22247;48.586;13.492;2023-07-20T01:53:44;10.00;;;5.00;;
36211;SDS011;22247;48.586;13.492;2023-07-20T01:56:09;9.32;;;5.05;;
36211;SDS011;22247;48.586;13.492;2023-07-20T01:58:36;11.00;;;5.05;;
36211;SDS011;22247;48.586;13.492;2023-07-20T02:01:01;10.82;;;5.00;;
36211;SDS011;22247;48.586;13.492;2023-07-20T02:03:26;8.27;;;4.90;;
36211;SDS011;22247;48.586;13.492;2023-07-20T02:05:51;13.85;;;5.57;;
36211;SDS011;22247;48.586;13.492;2023-07-20T02:08:16;14.25;;;5.35;;
36211;SDS011;22247;48.586;13.492;2023-07-20T02:10:42;7.85;;;5.63;;
36211;SDS011;22247;48.586;13.492;2023-07-20T02:13:09;10.23;;;5.40;;
36211;SDS011;22247;48.586;13.492;2023-07-20T02:15:34;8.75;;;5.47;;
36211;SDS011;22247;48.586;13.492;2023-07-20T02:18:02;10.65;;;4.85;;
36211;SDS011;22247;48.586;13.492;2023-07-20T02:20:27;8.73;;;4.93;;
36211;SDS011;22247;48.586;13.492;2023-07-20T02:22:57;11.70;;;5.60;;
36211;SDS011;22247;48.586;13.492;2023-07-20T02:25:22;9.05;;;5.38;;
36211;SDS011;22247;48.586;13.492;2023-07-20T02:27:47;11.10;;;5.30;;
36211;SDS011;22247;48.586;13.492;2023-07-20T02:30:14;12.23;;;4.95;;
36211;SDS011;22247;48.586;13.492;2023-07-20T02:32:42;12.25;;;6.22;;
36211;SDS011;22247;48.586;13.492;2023-07-20T02:35:09;15.45;;;6.10;;
36211;SDS011;22247;48.586;13.492;2023-07-20T02:37:34;8.65;;;5.57;;
36211;SDS011;22247;48.586;13.492;2023-07-20T02:40:00;8.35;;;5.60;;
36211;SDS011;22247;48.586;13.492;2023-07-20T02:42:27;11.20;;;5.10;;
36211;SDS011;22247;48.586;13.492;2023-07-20T02:44:55;9.43;;;5.45;;
36211;SDS011;22247;48.586;13.492;2023-07-20T02:47:20;8.77;;;5.30;;
36211;SDS011;22247;48.586;13.492;2023-07-20T02:49:45;7.60;;;5.38;;
36211;SDS011;22247;48.586;13.492;2023-07-20T02:52:12;13.60;;;5.88;;
36211;SDS011;22247;48.586;13.492;2023-07-20T02:54:39;10.75;;;5.45;;
36211;SDS011;22247;48.586;13.492;2023-07-20T02:57:07;11.85;;;5.72;;
36211;SDS011;22247;48.586;13.492;2023-07-20T02:59:32;11.40;;;6.40;;
36211;SDS011;22247;48.586;13.492;2023-07-20T03:01:57;13.10;;;6.38;;
36211;SDS011;22247;48.586;13.492;2023-07-20T03:04:23;12.15;;;6.10;;
36211;SDS011;22247;48.586;13.492;2023-07-20T03:06:50;16.05;;;6.00;;
36211;SDS011;22247;48.586;13.492;2023-07-20T03:09:15;15.50;;;5.88;;
36211;SDS011;22247;48.586;13.492;2023-07-20T03:11:40;10.05;;;6.07;;
36211;SDS011;22247;48.586;13.492;2023-07-20T03:14:05;11.30;;;6.10;;
36211;SDS011;22247;48.586;13.492;2023-07-20T03:16:34;14.00;;;5.95;;
36211;SDS011;22247;48.586;13.492;2023-07-20T03:18:59;11.45;;;5.43;;
36211;SDS011;22247;48.586;13.492;2023-07-20T03:21:24;8.77;;;5.10;;
36211;SDS011;22247;48.586;13.492;2023-07-20T03:23:49;9.93;;;5.55;;
36211;SDS011;22247;48.586;13.492;2023-07-20T03:28:40;9.80;;;5.20;;
36211;SDS011;22247;48.586;13.492;2023-07-20T03:31:05;14.20;;;6.38;;
36211;SDS011;22247;48.586;13.492;2023-07-20T03:33:30;11.77;;;6.00;;
36211;SDS011;22247;48.586;13.492;2023-07-20T03:35:55;10.02;;;5.88;;
36211;SDS011;22247;48.586;13.492;2023-07-20T03:38:21;13.23;;;5.75;;
36211;SDS011;22247;48.586;13.492;2023-07-20T03:43:40;9.43;;;5.68;;
36211;SDS011;22247;48.586;13.492;2023-07-20T03:46:05;14.68;;;6.63;;
36211;SDS011;22247;48.586;13.492;2023-07-20T03:48:30;13.10;;;6.40;;
36211;SDS011;22247;48.586;13.492;2023-07-20T03:50:55;9.90;;;5.90;;
36211;SDS011;22247;48.586;13.492;2023-07-20T03:53:20;8.18;;;5.53;;
36211;SDS011;22247;48.586;13.492;2023-07-20T03:55:49;13.57;;;5.40;;
36211;SDS011;22247;48.586;13.492;2023-07-20T03:58:15;11.18;;;5.78;;
36211;SDS011;22247;48.586;13.492;2023-07-20T04:00:43;8.73;;;5.50;;
36211;SDS011;22247;48.586;13.492;2023-07-20T04:03:08;10.93;;;5.53;;
36211;SDS011;22247;48.586;13.492;2023-07-20T04:05:33;14.43;;;6.53;;
36211;SDS011;22247;48.586;13.492;2023-07-20T04:07:58;11.32;;;6.47;;
36211;SDS011;22247;48.586;13.492;2023-07-20T04:10:25;12.27;;;6.00;;
36211;SDS011;22247;48.586;13.492;2023-07-20T04:12:50;11.48;;;6.00;;
36211;SDS011;22247;48.586;13.492;2023-07-20T04:15:15;10.32;;;5.97;;
36211;SDS011;22247;48.586;13.492;2023-07-20T04:17:40;14.00;;;5.75;;
36211;SDS011;22247;48.586;13.492;2023-07-20T04:20:08;15.98;;;6.85;;
36211;SDS011;22247;48.586;13.492;2023-07-20T04:22:33;12.45;;;5.80;;
36211;SDS011;22247;48.586;13.492;2023-07-20T04:24:58;14.43;;;6.07;;
36211;SDS011;22247;48.586;13.492;2023-07-20T04:27:25;10.63;;;6.15;;
36211;SDS011;22247;48.586;13.492;2023-07-20T04:29:51;8.48;;;5.32;;
36211;SDS011;22247;48.586;13.492;2023-07-20T04:32:16;11.38;;;6.00;;
36211;SDS011;22247;48.586;13.492;2023-07-20T04:34:41;8.15;;;5.45;;
36211;SDS011;22247;48.586;13.492;2023-07-20T04:37:06;16.10;;;6.68;;
36211;SDS011;22247;48.586;13.492;2023-07-20T04:39:31;10.68;;;5.90;;
36211;SDS011;22247;48.586;13.492;2023-07-20T04:41:56;9.57;;;5.72;;
36211;SDS011;22247;48.586;13.492;2023-07-20T04:44:21;9.45;;;5.53;;
36211;SDS011;22247;48.586;13.492;2023-07-20T04:46:46;19.50;;;5.72;;
36211;SDS011;22247;48.586;13.492;2023-07-20T04:49:11;11.57;;;5.90;;
36211;SDS011;22247;48.586;13.492;2023-07-20T04:51:38;11.93;;;5.93;;
36211;SDS011;22247;48.586;13.492;2023-07-20T04:54:06;15.23;;;6.32;;
36211;SDS011;22247;48.586;13.492;2023-07-20T04:56:31;12.00;;;6.05;;
36211;SDS011;22247;48.586;13.492;2023-07-20T04:58:57;13.35;;;6.03;;
36211;SDS011;22247;48.586;13.492;2023-07-20T05:01:23;11.18;;;5.85;;
36211;SDS011;22247;48.586;13.492;2023-07-20T05:03:48;15.20;;;6.10;;
36211;SDS011;22247;48.586;13.492;2023-07-20T05:06:15;8.68;;;5.30;;
36211;SDS011;22247;48.586;13.492;2023-07-20T05:08:43;11.48;;;5.13;;
36211;SDS011;22247;48.586;13.492;2023-07-20T05:11:10;8.68;;;4.85;;
36211;SDS011;22247;48.586;13.492;2023-07-20T05:13:36;10.50;;;5.60;;
36211;SDS011;22247;48.586;13.492;2023-07-20T05:16:03;7.53;;;5.18;;
36211;SDS011;22247;48.586;13.492;2023-07-20T05:18:29;8.77;;;4.30;;
36211;SDS011;22247;48.586;13.492;2023-07-20T05:20:56;10.20;;;4.53;;
36211;SDS011;22247;48.586;13.492;2023-07-20T05:23:21;9.05;;;4.10;;
36211;SDS011;22247;48.586;13.492;2023-07-20T05:25:47;13.35;;;4.43;;
36211;SDS011;22247;48.586;13.492;2023-07-20T05:28:12;7.13;;;3.80;;
36211;SDS011;22247;48.586;13.492;2023-07-20T05:30:37;9.38;;;3.38;;
36211;SDS011;22247;48.586;13.492;2023-07-20T05:33:02;10.80;;;4.10;;
36211;SDS011;22247;48.586;13.492;2023-07-20T05:35:27;7.35;;;4.35;;
36211;SDS011;22247;48.586;13.492;2023-07-20T05:37:52;6.50;;;4.07;;
36211;SDS011;22247;48.586;13.492;2023-07-20T05:40:17;8.68;;;4.20;;
36211;SDS011;22247;48.586;13.492;2023-07-20T05:42:43;16.35;;;4.25;;
36211;SDS011;22247;48.586;13.492;2023-07-20T05:45:08;11.27;;;4.38;;
36211;SDS011;22247;48.586;13.492;2023-07-20T05:47:33;7.82;;;4.35;;
36211;SDS011;22247;48.586;13.492;2023-07-20T05:50:03;8.48;;;4.30;;
36211;SDS011;22247;48.586;13.492;2023-07-20T05:52:28;7.47;;;4.20;;
36211;SDS011;22247;48.586;13.492;2023-07-20T05:54:53;9.48;;;4.55;;
36211;SDS011;22247;48.586;13.492;2023-07-20T05:57:19;7.10;;;4.55;;
36211;SDS011;22247;48.586;13.492;2023-07-20T05:59:44;12.73;;;4.15;;
36211;SDS011;22247;48.586;13.492;2023-07-20T06:02:09;15.88;;;4.35;;
36211;SDS011;22247;48.586;13.492;2023-07-20T06:04:36;7.53;;;3.85;;
36211;SDS011;22247;48.586;13.492;2023-07-20T06:07:01;11.18;;;4.50;;
36211;SDS011;22247;48.586;13.492;2023-07-20T06:09:26;7.53;;;4.50;;
36211;SDS011;22247;48.586;13.492;2023-07-20T06:11:51;11.32;;;4.55;;
36211;SDS011;22247;48.586;13.492;2023-07-20T06:14:16;8.40;;;4.13;;
36211;SDS011;22247;48.586;13.492;2023-07-20T06:16:42;7.65;;;3.97;;
36211;SDS011;22247;48.586;13.492;2023-07-20T06:19:07;11.70;;;4.10;;
36211;SDS011;22247;48.586;13.492;2023-07-20T06:21:35;14.10;;;4.68;;
36211;SDS011;22247;48.586;13.492;2023-07-20T06:24:00;12.73;;;4.78;;
36211;SDS011;22247;48.586;13.492;2023-07-20T06:26:24;11.05;;;4.25;;
36211;SDS011;22247;48.586;13.492;2023-07-20T06:28:52;9.93;;;4.53;;
36211;SDS011;22247;48.586;13.492;2023-07-20T06:31:17;5.40;;;3.90;;
36211;SDS011;22247;48.586;13.492;2023-07-20T06:33:45;12.35;;;4.50;;
36211;SDS011;22247;48.586;13.492;2023-07-20T06:36:10;12.13;;;3.80;;
36211;SDS011;22247;48.586;13.492;2023-07-20T06:38:35;9.65;;;4.07;;
36211;SDS011;22247;48.586;13.492;2023-07-20T06:41:00;8.80;;;4.15;;
36211;SDS011;22247;48.586;13.492;2023-07-20T06:43:25;12.18;;;3.90;;
36211;SDS011;22247;48.586;13.492;2023-07-20T06:45:53;8.38;;;4.05;;
36211;SDS011;22247;48.586;13.492;2023-07-20T06:48:18;8.23;;;3.80;;
36211;SDS011;22247;48.586;13.492;2023-07-20T06:50:46;11.95;;;3.58;;
36211;SDS011;22247;48.586;13.492;2023-07-20T06:53:13;12.95;;;4.03;;
36211;SDS011;22247;48.586;13.492;2023-07-20T06:55:38;6.53;;;3.60;;
36211;SDS011;22247;48.586;13.492;2023-07-20T06:58:03;7.43;;;3.30;;
36211;SDS011;22247;48.586;13.492;2023-07-20T07:00:28;12.30;;;3.90;;
36211;SDS011;22247;48.586;13.492;2023-07-20T07:02:53;10.35;;;3.47;;
36211;SDS011;22247;48.586;13.492;2023-07-20T07:05:18;6.43;;;3.40;;
36211;SDS011;22247;48.586;13.492;2023-07-20T07:07:43;14.98;;;3.65;;
36211;SDS011;22247;48.586;13.492;2023-07-20T07:10:09;16.05;;;4.00;;
36211;SDS011;22247;48.586;13.492;2023-07-20T07:12:34;7.53;;;3.50;;
36211;SDS011;22247;48.586;13.492;2023-07-20T07:15:01;10.80;;;3.55;;
36211;SDS011;22247;48.586;13.492;2023-07-20T07:17:27;9.45;;;3.72;;
36211;SDS011;22247;48.586;13.492;2023-07-20T07:19:52;7.43;;;3.10;;
36211;SDS011;22247;48.586;13.492;2023-07-20T07:22:18;8.02;;;3.53;;
36211;SDS011;22247;48.586;13.492;2023-07-20T07:24:43;14.45;;;3.20;;
36211;SDS011;22247;48.586;13.492;2023-07-20T07:27:08;5.68;;;2.75;;
36211;SDS011;22247;48.586;13.492;2023-07-20T07:29:33;8.18;;;3.05;;
36211;SDS011;22247;48.586;13.492;2023-07-20T07:31:58;5.13;;;2.67;;
36211;SDS011;22247;48.586;13.492;2023-07-20T07:34:24;9.20;;;2.92;;
36211;SDS011;22247;48.586;13.492;2023-07-20T07:36:58;7.78;;;2.97;;
36211;SDS011;22247;48.586;13.492;2023-07-20T07:39:26;14.95;;;3.20;;
36211;SDS011;22247;48.586;13.492;2023-07-20T07:42:00;9.23;;;2.85;;
36211;SDS011;22247;48.586;13.492;2023-07-20T07:44:25;6.95;;;2.78;;
36211;SDS011;22247;48.586;13.492;2023-07-20T07:46:50;8.00;;;3.20;;
36211;SDS011;22247;48.586;13.492;2023-07-20T07:49:16;4.88;;;2.53;;
36211;SDS011;22247;48.586;13.492;2023-07-20T07:51:43;5.78;;;2.80;;
36211;SDS011;22247;48.586;13.492;2023-07-20T07:54:08;7.90;;;2.45;;
36211;SDS011;22247;48.586;13.492;2023-07-20T07:56:33;6.75;;;2.60;;
36211;SDS011;22247;48.586;13.492;2023-07-20T07:59:03;5.05;;;2.13;;
36211;SDS011;22247;48.586;13.492;2023-07-20T08:01:30;7.75;;;2.58;;
36211;SDS011;22247;48.586;13.492;2023-07-20T08:03:57;5.82;;;2.30;;
36211;SDS011;22247;48.586;13.492;2023-07-20T08:06:25;4.03;;;2.22;;
36211;SDS011;22247;48.586;13.492;2023-07-20T08:08:53;4.00;;;2.38;;
36211;SDS011;22247;48.586;13.492;2023-07-20T08:11:18;3.42;;;2.05;;
36211;SDS011;22247;48.586;13.492;2023-07-20T08:13:46;6.13;;;2.20;;
36211;SDS011;22247;48.586;13.492;2023-07-20T08:16:14;5.68;;;2.55;;
36211;SDS011;22247;48.586;13.492;2023-07-20T08:18:49;4.65;;;2.30;;
36211;SDS011;22247;48.586;13.492;2023-07-20T08:21:20;15.02;;;2.55;;
36211;SDS011;22247;48.586;13.492;2023-07-20T08:23:51;9.80;;;2.50;;
36211;SDS011;22247;48.586;13.492;2023-07-20T08:26:19;4.47;;;1.88;;
36211;SDS011;22247;48.586;13.492;2023-07-20T08:28:49;9.82;;;2.85;;
36211;SDS011;22247;48.586;13.492;2023-07-20T08:31:23;6.60;;;2.47;;
36211;SDS011;22247;48.586;13.492;2023-07-20T08:33:48;3.75;;;2.55;;
36211;SDS011;22247;48.586;13.492;2023-07-20T08:36:16;6.65;;;2.20;;
36211;SDS011;22247;48.586;13.492;2023-07-20T08:38:51;3.78;;;1.90;;
36211;SDS011;22247;48.586;13.492;2023-07-20T08:41:24;4.35;;;1.90;;
36211;SDS011;22247;48.586;13.492;2023-07-20T08:43:49;4.72;;;2.55;;
36211;SDS011;22247;48.586;13.492;2023-07-20T08:46:24;4.00;;;2.17;;
36211;SDS011;22247;48.586;13.492;2023-07-20T08:48:49;9.70;;;2.60;;
36211;SDS011;22247;48.586;13.492;2023-07-20T08:53:59;7.20;;;2.13;;
36211;SDS011;22247;48.586;13.492;2023-07-20T08:56:27;5.00;;;2.40;;
36211;SDS011;22247;48.586;13.492;2023-07-20T08:58:55;6.38;;;1.85;;
36211;SDS011;22247;48.586;13.492;2023-07-20T09:01:24;8.82;;;2.33;;
36211;SDS011;22247;48.586;13.492;2023-07-20T09:03:59;5.47;;;1.95;;
36211;SDS011;22247;48.586;13.492;2023-07-20T09:06:25;4.47;;;2.00;;
36211;SDS011;22247;48.586;13.492;2023-07-20T09:08:53;11.10;;;2.33;;
36211;SDS011;22247;48.586;13.492;2023-07-20T09:11:18;7.13;;;1.98;;
36211;SDS011;22247;48.586;13.492;2023-07-20T09:14:01;4.30;;;2.13;;
36211;SDS011;22247;48.586;13.492;2023-07-20T09:16:26;5.32;;;2.10;;
36211;SDS011;22247;48.586;13.492;2023-07-20T09:18:52;5.70;;;2.10;;
36211;SDS011;22247;48.586;13.492;2023-07-20T09:21:18;3.67;;;2.25;;
36211;SDS011;22247;48.586;13.492;2023-07-20T09:23:43;9.73;;;2.40;;
36211;SDS011;22247;48.586;13.492;2023-07-20T09:26:15;4.43;;;2.20;;
36211;SDS011;22247;48.586;13.492;2023-07-20T09:28:50;6.82;;;2.15;;
36211;SDS011;22247;48.586;13.492;2023-07-20T09:31:21;4.97;;;1.75;;
36211;SDS011;22247;48.586;13.492;2023-07-20T09:33:46;12.00;;;2.20;;
36211;SDS011;22247;48.586;13.492;2023-07-20T09:36:14;7.60;;;2.13;;
36211;SDS011;22247;48.586;13.492;2023-07-20T09:38:44;7.45;;;2.30;;
36211;SDS011;22247;48.586;13.492;2023-07-20T09:41:19;13.18;;;2.33;;
36211;SDS011;22247;48.586;13.492;2023-07-20T09:43:47;4.22;;;2.05;;
36211;SDS011;22247;48.586;13.492;2023-07-20T09:46:12;7.70;;;2.17;;
36211;SDS011;22247;48.586;13.492;2023-07-20T09:48:38;6.05;;;2.20;;
36211;SDS011;22247;48.586;13.492;2023-07-20T09:51:09;6.80;;;2.20;;
36211;SDS011;22247;48.586;13.492;2023-07-20T09:53:40;6.00;;;2.25;;
36211;SDS011;22247;48.586;13.492;2023-07-20T09:56:16;6.38;;;2.58;;
36211;SDS011;22247;48.586;13.492;2023-07-20T10:01:10;7.13;;;2.28;;
36211;SDS011;22247;48.586;13.492;2023-07-20T10:03:43;6.50;;;2.60;;
36211;SDS011;22247;48.586;13.492;2023-07-20T10:06:14;7.68;;;2.00;;
36211;SDS011;22247;48.586;13.492;2023-07-20T10:08:43;6.57;;;2.47;;
36211;SDS011;22247;48.586;13.492;2023-07-20T10:11:10;4.45;;;2.00;;
36211;SDS011;22247;48.586;13.492;2023-07-20T10:13:37;4.20;;;1.95;;
36211;SDS011;22247;48.586;13.492;2023-07-20T10:16:10;5.00;;;2.17;;
36211;SDS011;22247;48.586;13.492;2023-07-20T10:18:44;5.22;;;2.33;;
36211;SDS011;22247;48.586;13.492;2023-07-20T10:21:19;4.25;;;1.90;;
36211;SDS011;22247;48.586;13.492;2023-07-20T10:23:49;4.73;;;1.97;;
36211;SDS011;22247;48.586;13.492;2023-07-20T10:26:24;5.60;;;2.10;;
36211;SDS011;22247;48.586;13.492;2023-07-20T10:29:05;5.70;;;2.22;;
36211;SDS011;22247;48.586;13.492;2023-07-20T10:31:33;5.03;;;2.35;;
36211;SDS011;22247;48.586;13.492;2023-07-20T10:34:01;4.00;;;2.25;;
36211;SDS011;22247;48.586;13.492;2023-07-20T10:36:29;4.03;;;2.28;;
36211;SDS011;22247;48.586;13.492;2023-07-20T10:38:57;5.50;;;1.83;;
36211;SDS011;22247;48.586;13.492;2023-07-20T10:41:35;8.35;;;2.20;;
36211;SDS011;22247;48.586;13.492;2023-07-20T10:44:04;3.83;;;1.90;;
36211;SDS011;22247;48.586;13.492;2023-07-20T10:49:08;9.80;;;2.20;;
36211;SDS011;22247;48.586;13.492;2023-07-20T10:51:55;5.63;;;2.30;;
36211;SDS011;22247;48.586;13.492;2023-07-20T10:56:50;4.40;;;1.75;;
36211;SDS011;22247;48.586;13.492;2023-07-20T10:59:36;6.70;;;2.08;;
36211;SDS011;22247;48.586;13.492;2023-07-20T11:02:17;6.93;;;2.08;;
36211;SDS011;22247;48.586;13.492;2023-07-20T11:04:47;5.88;;;2.30;;
36211;SDS011;22247;48.586;13.492;2023-07-20T11:15:46;5.45;;;1.95;;
36211;SDS011;22247;48.586;13.492;2023-07-20T11:18:17;6.15;;;2.00;;
36211;SDS011;22247;48.586;13.492;2023-07-20T11:20:42;3.92;;;2.33;;
36211;SDS011;22247;48.586;13.492;2023-07-20T11:23:10;5.63;;;2.13;;
36211;SDS011;22247;48.586;13.492;2023-07-20T11:25:36;6.70;;;2.00;;
36211;SDS011;22247;48.586;13.492;2023-07-20T11:28:01;4.07;;;2.00;;
36211;SDS011;22247;48.586;13.492;2023-07-20T11:30:26;6.68;;;2.35;;
36211;SDS011;22247;48.586;13.492;2023-07-20T11:32:51;5.53;;;2.15;;
36211;SDS011;22247;48.586;13.492;2023-07-20T11:38:23;3.38;;;1.77;;
36211;SDS011;22247;48.586;13.492;2023-07-20T11:40:48;7.60;;;1.67;;
36211;SDS011;22247;48.586;13.492;2023-07-20T11:46:21;3.90;;;2.15;;
36211;SDS011;22247;48.586;13.492;2023-07-20T11:48:48;6.55;;;1.70;;
36211;SDS011;22247;48.586;13.492;2023-07-20T11:51:16;4.38;;;1.50;;
36211;SDS011;22247;48.586;13.492;2023-07-20T11:53:42;5.80;;;2.17;;
36211;SDS011;22247;48.586;13.492;2023-07-20T11:56:07;3.92;;;1.75;;
36211;SDS011;22247;48.586;13.492;2023-07-20T11:58:35;3.13;;;1.67;;
36211;SDS011;22247;48.586;13.492;2023-07-20T12:01:14;2.67;;;1.80;;
36211;SDS011;22247;48.586;13.492;2023-07-20T12:03:41;3.45;;;1.70;;
36211;SDS011;22247;48.586;13.492;2023-07-20T12:06:15;6.40;;;1.98;;
36211;SDS011;22247;48.586;13.492;2023-07-20T12:08:41;6.97;;;2.17;;
36211;SDS011;22247;48.586;13.492;2023-07-20T12:11:07;4.80;;;1.95;;
36211;SDS011;22247;48.586;13.492;2023-07-20T12:13:42;3.30;;;1.65;;
36211;SDS011;22247;48.586;13.492;2023-07-20T12:16:10;3.60;;;2.05;;
36211;SDS011;22247;48.586;13.492;2023-07-20T12:18:37;3.70;;;2.00;;
36211;SDS011;22247;48.586;13.492;2023-07-20T12:21:02;3.22;;;1.60;;
36211;SDS011;22247;48.586;13.492;2023-07-20T12:23:34;5.13;;;1.70;;
36211;SDS011;22247;48.586;13.492;2023-07-20T12:26:02;9.32;;;1.80;;
36211;SDS011;22247;48.586;13.492;2023-07-20T12:28:35;2.78;;;1.60;;
36211;SDS011;22247;48.586;13.492;2023-07-20T12:31:27;5.47;;;1.50;;
36211;SDS011;22247;48.586;13.492;2023-07-20T12:33:58;10.18;;;1.80;;
36211;SDS011;22247;48.586;13.492;2023-07-20T12:42:26;6.40;;;1.50;;
36211;SDS011;22247;48.586;13.492;2023-07-20T12:45:02;6.72;;;1.80;;
36211;SDS011;22247;48.586;13.492;2023-07-20T12:47:39;6.03;;;1.65;;
36211;SDS011;22247;48.586;13.492;2023-07-20T12:50:07;10.13;;;1.70;;
36211;SDS011;22247;48.586;13.492;2023-07-20T12:52:35;6.07;;;1.45;;
36211;SDS011;22247;48.586;13.492;2023-07-20T12:55:01;5.28;;;1.92;;
36211;SDS011;22247;48.586;13.492;2023-07-20T12:57:26;4.10;;;1.85;;
36211;SDS011;22247;48.586;13.492;2023-07-20T12:59:54;5.97;;;1.88;;
36211;SDS011;22247;48.586;13.492;2023-07-20T13:02:29;3.55;;;1.80;;
36211;SDS011;22247;48.586;13.492;2023-07-20T13:04:59;7.53;;;1.83;;
36211;SDS011;22247;48.586;13.492;2023-07-20T13:07:31;11.88;;;2.03;;
36211;SDS011;22247;48.586;13.492;2023-07-20T13:09:56;3.42;;;1.50;;
36211;SDS011;22247;48.586;13.492;2023-07-20T13:12:21;4.03;;;1.65;;
36211;SDS011;22247;48.586;13.492;2023-07-20T13:14:49;3.65;;;1.80;;
36211;SDS011;22247;48.586;13.492;2023-07-20T13:17:17;6.93;;;2.13;;
36211;SDS011;22247;48.586;13.492;2023-07-20T13:19:42;4.32;;;1.52;;
36211;SDS011;22247;48.586;13.492;2023-07-20T13:22:19;3.22;;;1.92;;
36211;SDS011;22247;48.586;13.492;2023-07-20T13:24:47;3.10;;;1.77;;
36211;SDS011;22247;48.586;13.492;2023-07-20T13:27:13;2.72;;;1.30;;
36211;SDS011;22247;48.586;13.492;2023-07-20T13:29:40;6.25;;;1.88;;
36211;SDS011;22247;48.586;13.492;2023-07-20T13:32:06;3.88;;;1.40;;
36211;SDS011;22247;48.586;13.492;2023-07-20T13:34:34;3.15;;;1.65;;
36211;SDS011;22247;48.586;13.492;2023-07-20T13:37:00;7.05;;;1.50;;
36211;SDS011;22247;48.586;13.492;2023-07-20T13:39:25;3.83;;;1.95;;
36211;SDS011;22247;48.586;13.492;2023-07-20T13:41:54;2.40;;;1.67;;
36211;SDS011;22247;48.586;13.492;2023-07-20T13:44:25;2.88;;;1.60;;
36211;SDS011;22247;48.586;13.492;2023-07-20T13:46:53;5.47;;;1.80;;
36211;SDS011;22247;48.586;13.492;2023-07-20T13:49:18;4.43;;;1.48;;
36211;SDS011;22247;48.586;13.492;2023-07-20T13:51:43;4.13;;;1.60;;
36211;SDS011;22247;48.586;13.492;2023-07-20T13:54:08;3.25;;;1.67;;
36211;SDS011;22247;48.586;13.492;2023-07-20T13:56:34;3.90;;;1.80;;
36211;SDS011;22247;48.586;13.492;2023-07-20T13:58:59;2.30;;;1.52;;
36211;SDS011;22247;48.586;13.492;2023-07-20T14:01:24;6.68;;;1.67;;
36211;SDS011;22247;48.586;13.492;2023-07-20T14:03:52;7.00;;;1.50;;
36211;SDS011;22247;48.586;13.492;2023-07-20T14:06:19;4.18;;;1.52;;
36211;SDS011;22247;48.586;13.492;2023-07-20T14:08:44;7.18;;;1.88;;
36211;SDS011;22247;48.586;13.492;2023-07-20T14:11:19;4.78;;;2.10;;
36211;SDS011;22247;48.586;13.492;2023-07-20T14:13:54;3.40;;;1.83;;
36211;SDS011;22247;48.586;13.492;2023-07-20T14:16:37;5.28;;;1.65;;
36211;SDS011;22247;48.586;13.492;2023-07-20T14:19:05;2.47;;;1.40;;
36211;SDS011;22247;48.586;13.492;2023-07-20T14:21:45;6.45;;;1.90;;
36211;SDS011;22247;48.586;13.492;2023-07-20T14:24:21;2.58;;;1.40;;
36211;SDS011;22247;48.586;13.492;2023-07-20T14:26:49;6.95;;;1.30;;
36211;SDS011;22247;48.586;13.492;2023-07-20T14:29:18;4.15;;;1.20;;
36211;SDS011;22247;48.586;13.492;2023-07-20T14:31:43;2.97;;;1.40;;
36211;SDS011;22247;48.586;13.492;2023-07-20T14:34:08;4.10;;;1.45;;
36211;SDS011;22247;48.586;13.492;2023-07-20T14:36:47;5.45;;;1.73;;
36211;SDS011;22247;48.586;13.492;2023-07-20T14:39:15;4.60;;;2.20;;
36211;SDS011;22247;48.586;13.492;2023-07-20T14:41:55;4.97;;;1.85;;
36211;SDS011;22247;48.586;13.492;2023-07-20T14:44:26;3.75;;;1.63;;
36211;SDS011;22247;48.586;13.492;2023-07-20T14:46:57;6.30;;;1.65;;
36211;SDS011;22247;48.586;13.492;2023-07-20T14:49:22;11.80;;;1.95;;
36211;SDS011;22247;48.586;13.492;2023-07-20T14:51:47;2.67;;;1.50;;
36211;SDS011;22247;48.586;13.492;2023-07-20T14:54:13;3.85;;;1.85;;
36211;SDS011;22247;48.586;13.492;2023-07-20T14:56:51;8.30;;;1.80;;
36211;SDS011;22247;48.586;13.492;2023-07-20T14:59:16;4.82;;;2.88;;
36211;SDS011;22247;48.586;13.492;2023-07-20T15:01:41;6.05;;;1.98;;
36211;SDS011;22247;48.586;13.492;2023-07-20T15:04:13;3.15;;;1.60;;
36211;SDS011;22247;48.586;13.492;2023-07-20T15:06:41;3.17;;;1.38;;
36211;SDS011;22247;48.586;13.492;2023-07-20T15:09:09;5.90;;;1.67;;
36211;SDS011;22247;48.586;13.492;2023-07-20T15:11:37;2.30;;;1.30;;
36211;SDS011;22247;48.586;13.492;2023-07-20T15:14:02;3.97;;;1.55;;
36211;SDS011;22247;48.586;13.492;2023-07-20T15:16:30;7.18;;;1.80;;